Akron, Alabama
Current Conditions -  °F | °C
As of 10:53 AM on Monday 24 Nov 2014 (Local Time) from KTCL Reporting Station
Clear Clear  
Wind Chill: 64°   Ceiling: Unl
Heat Index: 64°   Visibility: 10mi
Dew Point: 46°   Wind: 13mph
Humidity: 52%   Direction: 280°W
Pressure: 29.87"   Gusts: 25mph
Location:  32.88°N, 87.74°W
Report Text: KTCL 241653Z 28011G22KT 10SM CLR 18/08 A2987 RMK AO2 SLP113 T01780078
Loading
Personal Weather Stations






























Interactive Weather Map New forecast layout! Learn more

10-Day Weather Forecast

Advertisements
Track Severe Weather on mobile